sensor_id;sensor_type;location;lat;lon;timestamp;temperature;humidity
1766;DHT22;880;52.452;8.656;2023-02-24T00:01:52;4.70;99.90
1766;DHT22;880;52.452;8.656;2023-02-24T00:04:27;4.70;99.90
1766;DHT22;880;52.452;8.656;2023-02-24T00:06:56;4.70;99.90
1766;DHT22;880;52.452;8.656;2023-02-24T00:09:24;4.70;99.90
1766;DHT22;880;52.452;8.656;2023-02-24T00:14:24;4.60;99.90
1766;DHT22;880;52.452;8.656;2023-02-24T00:16:53;4.70;99.90
1766;DHT22;880;52.452;8.656;2023-02-24T00:19:22;4.70;99.90
1766;DHT22;880;52.452;8.656;2023-02-24T00:21:50;4.60;99.90
1766;DHT22;880;52.452;8.656;2023-02-24T00:24:20;4.70;99.90
1766;DHT22;880;52.452;8.656;2023-02-24T00:26:56;4.70;99.90
1766;DHT22;880;52.452;8.656;2023-02-24T00:29:25;4.70;99.90
1766;DHT22;880;52.452;8.656;2023-02-24T00:31:55;4.70;99.90
1766;DHT22;880;52.452;8.656;2023-02-24T00:34:32;4.60;99.90
1766;DHT22;880;52.452;8.656;2023-02-24T00:37:01;4.60;99.90
1766;DHT22;880;52.452;8.656;2023-02-24T00:39:28;4.60;99.90
1766;DHT22;880;52.452;8.656;2023-02-24T00:41:56;4.60;99.90
1766;DHT22;880;52.452;8.656;2023-02-24T00:44:38;4.70;99.90
1766;DHT22;880;52.452;8.656;2023-02-24T00:47:08;4.70;99.90
1766;DHT22;880;52.452;8.656;2023-02-24T00:49:37;4.70;99.90
1766;DHT22;880;52.452;8.656;2023-02-24T00:52:18;4.60;99.90
1766;DHT22;880;52.452;8.656;2023-02-24T00:54:47;4.70;99.90
1766;DHT22;880;52.452;8.656;2023-02-24T00:57:15;4.70;99.90
1766;DHT22;880;52.452;8.656;2023-02-24T00:59:48;4.60;99.90
1766;DHT22;880;52.452;8.656;2023-02-24T01:02:18;4.60;99.90
1766;DHT22;880;52.452;8.656;2023-02-24T01:04:45;4.60;99.90
1766;DHT22;880;52.452;8.656;2023-02-24T01:07:13;4.60;99.90
1766;DHT22;880;52.452;8.656;2023-02-24T01:09:41;4.50;99.90
1766;DHT22;880;52.452;8.656;2023-02-24T01:12:11;4.50;99.90
1766;DHT22;880;52.452;8.656;2023-02-24T01:14:57;4.60;99.90
1766;DHT22;880;52.452;8.656;2023-02-24T01:17:24;4.50;99.90
1766;DHT22;880;52.452;8.656;2023-02-24T01:19:51;4.50;99.90
1766;DHT22;880;52.452;8.656;2023-02-24T01:22:19;4.50;99.90
1766;DHT22;880;52.452;8.656;2023-02-24T01:24:47;4.60;99.90
1766;DHT22;880;52.452;8.656;2023-02-24T01:27:16;4.50;99.90
1766;DHT22;880;52.452;8.656;2023-02-24T01:29:48;4.50;99.90
1766;DHT22;880;52.452;8.656;2023-02-24T01:32:19;4.50;99.90
1766;DHT22;880;52.452;8.656;2023-02-24T01:34:50;4.50;99.90
1766;DHT22;880;52.452;8.656;2023-02-24T01:37:18;4.50;99.90
1766;DHT22;880;52.452;8.656;2023-02-24T01:39:46;4.50;99.90
1766;DHT22;880;52.452;8.656;2023-02-24T01:42:16;4.50;99.90
1766;DHT22;880;52.452;8.656;2023-02-24T01:47:18;4.40;99.90
1766;DHT22;880;52.452;8.656;2023-02-24T01:49:51;4.40;99.90
1766;DHT22;880;52.452;8.656;2023-02-24T01:52:22;4.40;99.90
1766;DHT22;880;52.452;8.656;2023-02-24T01:57:49;4.40;99.90
1766;DHT22;880;52.452;8.656;2023-02-24T02:00:18;4.40;99.90
1766;DHT22;880;52.452;8.656;2023-02-24T02:02:59;4.30;99.90
1766;DHT22;880;52.452;8.656;2023-02-24T02:05:29;4.30;99.90
1766;DHT22;880;52.452;8.656;2023-02-24T02:07:57;4.40;99.90
1766;DHT22;880;52.452;8.656;2023-02-24T02:10:24;4.30;99.90
1766;DHT22;880;52.452;8.656;2023-02-24T02:12:52;4.30;99.90
1766;DHT22;880;52.452;8.656;2023-02-24T02:15:19;4.30;99.90
1766;DHT22;880;52.452;8.656;2023-02-24T02:18:06;4.30;99.90
1766;DHT22;880;52.452;8.656;2023-02-24T02:20:44;4.20;99.90
1766;DHT22;880;52.452;8.656;2023-02-24T02:23:57;4.20;99.90
1766;DHT22;880;52.452;8.656;2023-02-24T02:27:05;4.20;99.90
1766;DHT22;880;52.452;8.656;2023-02-24T02:32:59;4.00;99.90
1766;DHT22;880;52.452;8.656;2023-02-24T02:41:28;4.00;99.90
1766;DHT22;880;52.452;8.656;2023-02-24T02:44:08;3.90;99.90
1766;DHT22;880;52.452;8.656;2023-02-24T02:46:46;3.80;99.90
1766;DHT22;880;52.452;8.656;2023-02-24T02:49:20;3.80;99.90
1766;DHT22;880;52.452;8.656;2023-02-24T02:52:16;3.80;99.90
1766;DHT22;880;52.452;8.656;2023-02-24T02:55:00;3.70;99.90
1766;DHT22;880;52.452;8.656;2023-02-24T02:57:31;3.70;99.90
1766;DHT22;880;52.452;8.656;2023-02-24T03:00:08;3.60;99.90
1766;DHT22;880;52.452;8.656;2023-02-24T03:02:50;3.60;99.90
1766;DHT22;880;52.452;8.656;2023-02-24T03:05:27;3.60;99.90
1766;DHT22;880;52.452;8.656;2023-02-24T03:07:58;3.50;99.90
1766;DHT22;880;52.452;8.656;2023-02-24T03:10:28;3.50;99.90
1766;DHT22;880;52.452;8.656;2023-02-24T03:13:01;3.60;99.90
1766;DHT22;880;52.452;8.656;2023-02-24T03:15:30;3.60;99.90
1766;DHT22;880;52.452;8.656;2023-02-24T03:18:08;3.50;99.90
1766;DHT22;880;52.452;8.656;2023-02-24T03:20:42;3.50;99.90
1766;DHT22;880;52.452;8.656;2023-02-24T03:23:17;3.50;99.90
1766;DHT22;880;52.452;8.656;2023-02-24T03:25:53;3.60;99.90
1766;DHT22;880;52.452;8.656;2023-02-24T03:28:34;3.60;99.90
1766;DHT22;880;52.452;8.656;2023-02-24T03:33:40;3.50;99.90
1766;DHT22;880;52.452;8.656;2023-02-24T03:36:12;3.60;99.90
1766;DHT22;880;52.452;8.656;2023-02-24T03:38:41;3.60;99.90
1766;DHT22;880;52.452;8.656;2023-02-24T03:41:11;3.60;99.90
1766;DHT22;880;52.452;8.656;2023-02-24T03:43:43;3.50;99.90
1766;DHT22;880;52.452;8.656;2023-02-24T03:46:12;3.50;99.90
1766;DHT22;880;52.452;8.656;2023-02-24T03:48:47;3.50;99.90
1766;DHT22;880;52.452;8.656;2023-02-24T03:51:20;3.50;99.90
1766;DHT22;880;52.452;8.656;2023-02-24T03:56:46;3.50;99.90
1766;DHT22;880;52.452;8.656;2023-02-24T03:59:55;3.50;99.90
1766;DHT22;880;52.452;8.656;2023-02-24T04:06:11;3.50;99.90
1766;DHT22;880;52.452;8.656;2023-02-24T04:09:20;3.50;99.90
1766;DHT22;880;52.452;8.656;2023-02-24T04:12:25;3.50;99.90
1766;DHT22;880;52.452;8.656;2023-02-24T04:17:49;3.50;99.90
1766;DHT22;880;52.452;8.656;2023-02-24T04:20:22;3.50;99.90
1766;DHT22;880;52.452;8.656;2023-02-24T04:23:01;3.50;99.90
1766;DHT22;880;52.452;8.656;2023-02-24T04:25:37;3.50;99.90
1766;DHT22;880;52.452;8.656;2023-02-24T04:28:05;3.50;99.90
1766;DHT22;880;52.452;8.656;2023-02-24T04:30:40;3.50;99.90
1766;DHT22;880;52.452;8.656;2023-02-24T04:33:10;3.50;99.90
1766;DHT22;880;52.452;8.656;2023-02-24T04:35:37;3.50;99.90
1766;DHT22;880;52.452;8.656;2023-02-24T04:38:06;3.50;99.90
1766;DHT22;880;52.452;8.656;2023-02-24T04:40:33;3.50;99.90
1766;DHT22;880;52.452;8.656;2023-02-24T04:43:02;3.60;99.90
1766;DHT22;880;52.452;8.656;2023-02-24T04:45:30;3.50;99.90
1766;DHT22;880;52.452;8.656;2023-02-24T04:47:59;3.50;99.90
1766;DHT22;880;52.452;8.656;2023-02-24T04:50:35;3.50;99.90
1766;DHT22;880;52.452;8.656;2023-02-24T04:53:05;3.50;99.90
1766;DHT22;880;52.452;8.656;2023-02-24T04:55:38;3.60;99.90
1766;DHT22;880;52.452;8.656;2023-02-24T04:58:12;3.50;99.90
1766;DHT22;880;52.452;8.656;2023-02-24T05:00:50;3.50;99.90
1766;DHT22;880;52.452;8.656;2023-02-24T05:03:24;3.50;99.90
1766;DHT22;880;52.452;8.656;2023-02-24T05:05:56;3.50;99.90
1766;DHT22;880;52.452;8.656;2023-02-24T05:08:27;3.50;99.90
1766;DHT22;880;52.452;8.656;2023-02-24T05:10:56;3.50;99.90
1766;DHT22;880;52.452;8.656;2023-02-24T05:13:26;3.50;99.90
1766;DHT22;880;52.452;8.656;2023-02-24T05:15:56;3.50;99.90
1766;DHT22;880;52.452;8.656;2023-02-24T05:18:29;3.60;99.90
1766;DHT22;880;52.452;8.656;2023-02-24T05:21:10;3.60;99.90
1766;DHT22;880;52.452;8.656;2023-02-24T05:23:58;3.50;99.90
1766;DHT22;880;52.452;8.656;2023-02-24T05:26:26;3.50;99.90
1766;DHT22;880;52.452;8.656;2023-02-24T05:28:54;3.50;99.90
1766;DHT22;880;52.452;8.656;2023-02-24T05:31:25;3.50;99.90
1766;DHT22;880;52.452;8.656;2023-02-24T05:33:57;3.60;99.90
1766;DHT22;880;52.452;8.656;2023-02-24T05:36:28;3.50;99.90
1766;DHT22;880;52.452;8.656;2023-02-24T05:39:07;3.60;99.90
1766;DHT22;880;52.452;8.656;2023-02-24T05:41:40;3.60;99.90
1766;DHT22;880;52.452;8.656;2023-02-24T05:44:13;3.60;99.90
1766;DHT22;880;52.452;8.656;2023-02-24T05:46:43;3.60;99.90
1766;DHT22;880;52.452;8.656;2023-02-24T05:49:14;3.60;99.90
1766;DHT22;880;52.452;8.656;2023-02-24T05:51:50;3.60;99.90
1766;DHT22;880;52.452;8.656;2023-02-24T05:54:29;3.60;99.90
1766;DHT22;880;52.452;8.656;2023-02-24T05:56:59;3.60;99.90
1766;DHT22;880;52.452;8.656;2023-02-24T05:59:27;3.60;99.90
1766;DHT22;880;52.452;8.656;2023-02-24T06:02:04;3.50;99.90
1766;DHT22;880;52.452;8.656;2023-02-24T06:04:37;3.60;99.90
1766;DHT22;880;52.452;8.656;2023-02-24T06:07:22;3.60;99.90
1766;DHT22;880;52.452;8.656;2023-02-24T06:09:56;3.60;99.90
1766;DHT22;880;52.452;8.656;2023-02-24T06:12:27;3.60;99.90
1766;DHT22;880;52.452;8.656;2023-02-24T06:14:59;3.60;99.90
1766;DHT22;880;52.452;8.656;2023-02-24T06:17:27;3.60;99.90
1766;DHT22;880;52.452;8.656;2023-02-24T06:19:54;3.60;99.90
1766;DHT22;880;52.452;8.656;2023-02-24T06:22:23;3.60;99.90
1766;DHT22;880;52.452;8.656;2023-02-24T06:24:53;3.60;99.90
1766;DHT22;880;52.452;8.656;2023-02-24T06:27:20;3.60;99.90
1766;DHT22;880;52.452;8.656;2023-02-24T06:29:52;3.60;99.90
1766;DHT22;880;52.452;8.656;2023-02-24T06:32:23;3.60;99.90
1766;DHT22;880;52.452;8.656;2023-02-24T06:34:52;3.60;99.90
1766;DHT22;880;52.452;8.656;2023-02-24T06:37:20;3.60;99.90
1766;DHT22;880;52.452;8.656;2023-02-24T06:39:49;3.60;99.90
1766;DHT22;880;52.452;8.656;2023-02-24T06:42:16;3.60;99.90
1766;DHT22;880;52.452;8.656;2023-02-24T06:44:43;3.60;99.90
1766;DHT22;880;52.452;8.656;2023-02-24T06:47:12;3.60;99.90
1766;DHT22;880;52.452;8.656;2023-02-24T06:49:40;3.60;99.90
1766;DHT22;880;52.452;8.656;2023-02-24T06:52:10;3.60;99.90
1766;DHT22;880;52.452;8.656;2023-02-24T06:54:47;3.60;99.90
1766;DHT22;880;52.452;8.656;2023-02-24T06:57:14;3.70;99.90
1766;DHT22;880;52.452;8.656;2023-02-24T06:59:41;3.70;99.90
1766;DHT22;880;52.452;8.656;2023-02-24T07:02:09;3.70;99.90
1766;DHT22;880;52.452;8.656;2023-02-24T07:04:36;3.70;99.90
1766;DHT22;880;52.452;8.656;2023-02-24T07:07:10;3.80;99.90
1766;DHT22;880;52.452;8.656;2023-02-24T07:09:40;3.80;99.90
1766;DHT22;880;52.452;8.656;2023-02-24T07:12:08;3.80;99.90
1766;DHT22;880;52.452;8.656;2023-02-24T07:14:36;3.80;99.90
1766;DHT22;880;52.452;8.656;2023-02-24T07:17:04;3.80;99.90
1766;DHT22;880;52.452;8.656;2023-02-24T07:19:31;3.70;99.90
1766;DHT22;880;52.452;8.656;2023-02-24T07:22:00;3.70;99.90
1766;DHT22;880;52.452;8.656;2023-02-24T07:24:34;3.80;99.90
1766;DHT22;880;52.452;8.656;2023-02-24T07:27:14;3.80;99.90
1766;DHT22;880;52.452;8.656;2023-02-24T07:29:49;3.80;99.90
1766;DHT22;880;52.452;8.656;2023-02-24T07:32:19;3.80;99.90
1766;DHT22;880;52.452;8.656;2023-02-24T07:34:48;3.80;99.90
1766;DHT22;880;52.452;8.656;2023-02-24T07:37:14;3.80;99.90
1766;DHT22;880;52.452;8.656;2023-02-24T07:39:42;3.80;99.90
1766;DHT22;880;52.452;8.656;2023-02-24T07:42:10;3.90;99.90
1766;DHT22;880;52.452;8.656;2023-02-24T07:44:44;3.90;99.90
1766;DHT22;880;52.452;8.656;2023-02-24T07:47:12;3.90;99.90
1766;DHT22;880;52.452;8.656;2023-02-24T07:49:42;3.90;99.90
1766;DHT22;880;52.452;8.656;2023-02-24T07:52:10;3.90;99.90
1766;DHT22;880;52.452;8.656;2023-02-24T07:54:37;3.90;99.90
1766;DHT22;880;52.452;8.656;2023-02-24T07:57:05;3.90;99.90
1766;DHT22;880;52.452;8.656;2023-02-24T07:59:39;3.90;99.90
1766;DHT22;880;52.452;8.656;2023-02-24T08:02:13;3.90;99.90
1766;DHT22;880;52.452;8.656;2023-02-24T08:04:41;3.90;99.90
1766;DHT22;880;52.452;8.656;2023-02-24T08:07:16;3.90;99.90
1766;DHT22;880;52.452;8.656;2023-02-24T08:09:51;3.90;99.90
1766;DHT22;880;52.452;8.656;2023-02-24T08:12:39;3.80;99.90
1766;DHT22;880;52.452;8.656;2023-02-24T08:15:11;3.80;99.90
1766;DHT22;880;52.452;8.656;2023-02-24T08:17:51;3.70;99.90
1766;DHT22;880;52.452;8.656;2023-02-24T08:20:22;3.70;99.90
1766;DHT22;880;52.452;8.656;2023-02-24T08:22:53;3.60;99.90
1766;DHT22;880;52.452;8.656;2023-02-24T08:25:28;3.60;99.90
1766;DHT22;880;52.452;8.656;2023-02-24T08:28:04;3.60;99.90
1766;DHT22;880;52.452;8.656;2023-02-24T08:30:38;3.60;99.90
1766;DHT22;880;52.452;8.656;2023-02-24T08:33:17;3.50;99.90
1766;DHT22;880;52.452;8.656;2023-02-24T08:35:51;3.50;99.90
1766;DHT22;880;52.452;8.656;2023-02-24T08:38:23;3.50;99.90
1766;DHT22;880;52.452;8.656;2023-02-24T08:40:53;3.60;99.90
1766;DHT22;880;52.452;8.656;2023-02-24T08:43:36;3.60;99.90
1766;DHT22;880;52.452;8.656;2023-02-24T08:46:05;3.50;99.90
1766;DHT22;880;52.452;8.656;2023-02-24T08:48:44;3.50;99.90
1766;DHT22;880;52.452;8.656;2023-02-24T08:54:03;3.50;99.90
1766;DHT22;880;52.452;8.656;2023-02-24T08:56:43;3.40;99.90
1766;DHT22;880;52.452;8.656;2023-02-24T08:59:18;3.50;99.90
1766;DHT22;880;52.452;8.656;2023-02-24T09:02:14;3.40;99.90
1766;DHT22;880;52.452;8.656;2023-02-24T09:05:01;3.40;99.90
1766;DHT22;880;52.452;8.656;2023-02-24T09:07:34;3.40;99.90
1766;DHT22;880;52.452;8.656;2023-02-24T09:10:16;3.30;99.90
1766;DHT22;880;52.452;8.656;2023-02-24T09:12:44;3.40;99.90
1766;DHT22;880;52.452;8.656;2023-02-24T09:15:13;3.40;99.90
1766;DHT22;880;52.452;8.656;2023-02-24T09:17:44;3.40;99.90
1766;DHT22;880;52.452;8.656;2023-02-24T09:20:22;3.50;99.90
1766;DHT22;880;52.452;8.656;2023-02-24T09:22:53;3.40;99.90
1766;DHT22;880;52.452;8.656;2023-02-24T09:25:37;3.40;99.90
1766;DHT22;880;52.452;8.656;2023-02-24T09:28:19;3.40;99.90
1766;DHT22;880;52.452;8.656;2023-02-24T09:30:53;3.40;99.90
1766;DHT22;880;52.452;8.656;2023-02-24T09:33:29;3.40;99.90
1766;DHT22;880;52.452;8.656;2023-02-24T09:36:15;3.30;99.90
1766;DHT22;880;52.452;8.656;2023-02-24T09:38:51;3.40;99.90
1766;DHT22;880;52.452;8.656;2023-02-24T09:41:50;3.30;99.90
1766;DHT22;880;52.452;8.656;2023-02-24T09:44:38;3.30;99.90
1766;DHT22;880;52.452;8.656;2023-02-24T09:53:11;3.30;99.90
1766;DHT22;880;52.452;8.656;2023-02-24T09:55:49;3.30;99.90
1766;DHT22;880;52.452;8.656;2023-02-24T10:01:34;3.30;99.90
1766;DHT22;880;52.452;8.656;2023-02-24T10:04:28;3.30;99.90
1766;DHT22;880;52.452;8.656;2023-02-24T10:09:55;3.30;99.90
1766;DHT22;880;52.452;8.656;2023-02-24T10:13:18;3.40;99.90
1766;DHT22;880;52.452;8.656;2023-02-24T10:16:02;3.40;99.90
1766;DHT22;880;52.452;8.656;2023-02-24T10:21:19;3.40;99.90
1766;DHT22;880;52.452;8.656;2023-02-24T10:23:59;3.30;99.90
1766;DHT22;880;52.452;8.656;2023-02-24T10:35:14;3.30;99.90
1766;DHT22;880;52.452;8.656;2023-02-24T10:37:43;3.30;99.90
1766;DHT22;880;52.452;8.656;2023-02-24T10:40:10;3.30;99.90
1766;DHT22;880;52.452;8.656;2023-02-24T10:42:43;3.30;99.90
1766;DHT22;880;52.452;8.656;2023-02-24T10:45:19;3.30;99.90
1766;DHT22;880;52.452;8.656;2023-02-24T10:47:56;3.30;99.90
1766;DHT22;880;52.452;8.656;2023-02-24T10:50:41;3.20;99.90
1766;DHT22;880;52.452;8.656;2023-02-24T10:53:21;3.20;99.90
1766;DHT22;880;52.452;8.656;2023-02-24T10:56:12;3.20;99.90
1766;DHT22;880;52.452;8.656;2023-02-24T10:59:18;3.20;99.90
1766;DHT22;880;52.452;8.656;2023-02-24T11:02:25;3.20;99.90
1766;DHT22;880;52.452;8.656;2023-02-24T11:04:57;3.20;99.90
1766;DHT22;880;52.452;8.656;2023-02-24T11:07:32;3.10;99.90
1766;DHT22;880;52.452;8.656;2023-02-24T11:10:16;3.20;99.90
1766;DHT22;880;52.452;8.656;2023-02-24T11:13:04;3.20;99.90
1766;DHT22;880;52.452;8.656;2023-02-24T11:15:52;3.20;99.90
1766;DHT22;880;52.452;8.656;2023-02-24T11:18:45;3.10;99.90
1766;DHT22;880;52.452;8.656;2023-02-24T11:21:16;3.10;99.90
1766;DHT22;880;52.452;8.656;2023-02-24T11:23:53;3.20;99.90
1766;DHT22;880;52.452;8.656;2023-02-24T11:26:33;3.20;99.90
1766;DHT22;880;52.452;8.656;2023-02-24T11:35:16;3.20;99.90
1766;DHT22;880;52.452;8.656;2023-02-24T11:40:24;3.30;99.90
1766;DHT22;880;52.452;8.656;2023-02-24T11:42:57;3.30;99.90
1766;DHT22;880;52.452;8.656;2023-02-24T11:45:32;3.30;99.90
1766;DHT22;880;52.452;8.656;2023-02-24T11:59:10;3.40;99.90
1766;DHT22;880;52.452;8.656;2023-02-24T12:07:52;3.40;99.90
1766;DHT22;880;52.452;8.656;2023-02-24T12:10:23;3.40;99.90
1766;DHT22;880;52.452;8.656;2023-02-24T12:15:48;3.50;99.90
1766;DHT22;880;52.452;8.656;2023-02-24T12:18:26;3.50;99.90
1766;DHT22;880;52.452;8.656;2023-02-24T12:21:28;3.60;99.90
1766;DHT22;880;52.452;8.656;2023-02-24T12:24:00;3.60;99.90
1766;DHT22;880;52.452;8.656;2023-02-24T12:26:45;3.60;99.90
1766;DHT22;880;52.452;8.656;2023-02-24T12:29:58;3.60;99.90
1766;DHT22;880;52.452;8.656;2023-02-24T12:32:54;3.60;99.90
1766;DHT22;880;52.452;8.656;2023-02-24T12:35:46;3.70;99.90
1766;DHT22;880;52.452;8.656;2023-02-24T12:47:10;3.80;99.90
1766;DHT22;880;52.452;8.656;2023-02-24T12:55:38;3.80;99.90
1766;DHT22;880;52.452;8.656;2023-02-24T12:58:14;3.80;99.90
1766;DHT22;880;52.452;8.656;2023-02-24T13:12:39;4.00;99.90
1766;DHT22;880;52.452;8.656;2023-02-24T13:15:21;4.00;99.90
1766;DHT22;880;52.452;8.656;2023-02-24T13:17:52;4.00;99.90
1766;DHT22;880;52.452;8.656;2023-02-24T13:20:33;4.00;99.90
1766;DHT22;880;52.452;8.656;2023-02-24T13:23:16;4.00;99.90
1766;DHT22;880;52.452;8.656;2023-02-24T13:25:51;4.10;99.90
1766;DHT22;880;52.452;8.656;2023-02-24T13:28:39;4.10;99.90
1766;DHT22;880;52.452;8.656;2023-02-24T13:31:11;4.20;99.90
1766;DHT22;880;52.452;8.656;2023-02-24T13:33:43;4.20;99.90
1766;DHT22;880;52.452;8.656;2023-02-24T13:46:25;4.40;99.90
1766;DHT22;880;52.452;8.656;2023-02-24T13:49:17;4.40;99.90
1766;DHT22;880;52.452;8.656;2023-02-24T13:53:29;4.50;99.90
1766;DHT22;880;52.452;8.656;2023-02-24T14:01:32;4.70;99.90
1766;DHT22;880;52.452;8.656;2023-02-24T14:04:43;4.80;99.90
1766;DHT22;880;52.452;8.656;2023-02-24T14:07:14;4.80;99.90
1766;DHT22;880;52.452;8.656;2023-02-24T14:09:50;4.80;99.90
1766;DHT22;880;52.452;8.656;2023-02-24T14:12:22;4.80;99.90
1766;DHT22;880;52.452;8.656;2023-02-24T14:14:51;4.90;99.90
1766;DHT22;880;52.452;8.656;2023-02-24T14:17:24;4.90;99.90
1766;DHT22;880;52.452;8.656;2023-02-24T14:20:06;5.00;99.90
1766;DHT22;880;52.452;8.656;2023-02-24T14:22:34;5.10;99.90
1766;DHT22;880;52.452;8.656;2023-02-24T14:25:16;5.10;99.90
1766;DHT22;880;52.452;8.656;2023-02-24T14:27:46;5.20;99.90
1766;DHT22;880;52.452;8.656;2023-02-24T14:32:53;5.20;99.90
1766;DHT22;880;52.452;8.656;2023-02-24T14:35:27;5.20;99.90
1766;DHT22;880;52.452;8.656;2023-02-24T14:37:57;5.20;99.90
1766;DHT22;880;52.452;8.656;2023-02-24T14:40:27;5.20;99.90
1766;DHT22;880;52.452;8.656;2023-02-24T14:42:54;5.20;99.90
1766;DHT22;880;52.452;8.656;2023-02-24T14:45:26;5.20;99.90
1766;DHT22;880;52.452;8.656;2023-02-24T14:47:55;5.20;99.90
1766;DHT22;880;52.452;8.656;2023-02-24T14:50:31;5.30;99.90
1766;DHT22;880;52.452;8.656;2023-02-24T14:53:04;5.30;99.90
1766;DHT22;880;52.452;8.656;2023-02-24T14:55:36;5.30;99.90
1766;DHT22;880;52.452;8.656;2023-02-24T15:01:29;5.30;99.90
1766;DHT22;880;52.452;8.656;2023-02-24T15:04:12;5.40;99.90
1766;DHT22;880;52.452;8.656;2023-02-24T15:07:02;5.40;99.90
1766;DHT22;880;52.452;8.656;2023-02-24T15:09:40;5.40;99.90
1766;DHT22;880;52.452;8.656;2023-02-24T15:12:30;5.30;99.90
1766;DHT22;880;52.452;8.656;2023-02-24T15:17:43;5.40;99.90
1766;DHT22;880;52.452;8.656;2023-02-24T15:22:58;5.40;99.90
1766;DHT22;880;52.452;8.656;2023-02-24T15:25:39;5.40;99.90
1766;DHT22;880;52.452;8.656;2023-02-24T15:31:06;5.40;99.90
1766;DHT22;880;52.452;8.656;2023-02-24T15:33:42;5.40;99.90
1766;DHT22;880;52.452;8.656;2023-02-24T15:36:20;5.50;99.90
1766;DHT22;880;52.452;8.656;2023-02-24T15:39:00;5.50;99.90
1766;DHT22;880;52.452;8.656;2023-02-24T15:41:44;5.60;99.90
1766;DHT22;880;52.452;8.656;2023-02-24T15:44:30;5.60;99.90
1766;DHT22;880;52.452;8.656;2023-02-24T15:47:00;5.70;99.90
1766;DHT22;880;52.452;8.656;2023-02-24T15:49:44;5.70;99.90
1766;DHT22;880;52.452;8.656;2023-02-24T15:52:11;5.70;99.90
1766;DHT22;880;52.452;8.656;2023-02-24T15:54:39;5.60;99.90
1766;DHT22;880;52.452;8.656;2023-02-24T15:57:14;5.70;99.90
1766;DHT22;880;52.452;8.656;2023-02-24T15:59:42;5.70;99.90
1766;DHT22;880;52.452;8.656;2023-02-24T16:02:12;5.60;99.90
1766;DHT22;880;52.452;8.656;2023-02-24T16:04:42;5.60;99.90
1766;DHT22;880;52.452;8.656;2023-02-24T16:07:31;5.60;99.90
1766;DHT22;880;52.452;8.656;2023-02-24T16:10:00;5.60;99.90
1766;DHT22;880;52.452;8.656;2023-02-24T16:12:31;5.60;99.90
1766;DHT22;880;52.452;8.656;2023-02-24T16:15:03;5.60;99.90
1766;DHT22;880;52.452;8.656;2023-02-24T16:17:37;5.60;99.90
1766;DHT22;880;52.452;8.656;2023-02-24T16:20:10;5.60;99.90
1766;DHT22;880;52.452;8.656;2023-02-24T16:22:39;5.60;99.90
1766;DHT22;880;52.452;8.656;2023-02-24T16:25:06;5.60;99.90
1766;DHT22;880;52.452;8.656;2023-02-24T16:27:34;5.60;99.90
1766;DHT22;880;52.452;8.656;2023-02-24T16:30:02;5.60;99.90
1766;DHT22;880;52.452;8.656;2023-02-24T16:32:29;5.60;99.90
1766;DHT22;880;52.452;8.656;2023-02-24T16:34:56;5.50;99.90
1766;DHT22;880;52.452;8.656;2023-02-24T16:37:26;5.60;99.90
1766;DHT22;880;52.452;8.656;2023-02-24T16:39:55;5.60;99.90
1766;DHT22;880;52.452;8.656;2023-02-24T16:42:29;5.70;99.90
1766;DHT22;880;52.452;8.656;2023-02-24T16:44:56;5.60;99.90
1766;DHT22;880;52.452;8.656;2023-02-24T16:47:24;5.70;99.90
1766;DHT22;880;52.452;8.656;2023-02-24T16:49:52;5.60;99.90
1766;DHT22;880;52.452;8.656;2023-02-24T16:52:23;5.70;99.90
1766;DHT22;880;52.452;8.656;2023-02-24T16:54:50;5.70;99.90
1766;DHT22;880;52.452;8.656;2023-02-24T16:57:17;5.70;99.90
1766;DHT22;880;52.452;8.656;2023-02-24T16:59:44;5.60;99.90
1766;DHT22;880;52.452;8.656;2023-02-24T17:02:19;5.60;99.90
1766;DHT22;880;52.452;8.656;2023-02-24T17:04:47;5.60;99.90
1766;DHT22;880;52.452;8.656;2023-02-24T17:07:14;5.60;99.90
1766;DHT22;880;52.452;8.656;2023-02-24T17:09:43;5.60;99.90
1766;DHT22;880;52.452;8.656;2023-02-24T17:12:12;5.60;99.90
1766;DHT22;880;52.452;8.656;2023-02-24T17:14:39;5.60;99.90
1766;DHT22;880;52.452;8.656;2023-02-24T17:17:06;5.60;99.90
1766;DHT22;880;52.452;8.656;2023-02-24T17:19:33;5.60;99.90
1766;DHT22;880;52.452;8.656;2023-02-24T17:22:00;5.60;99.90
1766;DHT22;880;52.452;8.656;2023-02-24T17:24:27;5.60;99.90
1766;DHT22;880;52.452;8.656;2023-02-24T17:26:56;5.50;99.90
1766;DHT22;880;52.452;8.656;2023-02-24T17:29:26;5.50;99.90
1766;DHT22;880;52.452;8.656;2023-02-24T17:31:53;5.50;99.90
1766;DHT22;880;52.452;8.656;2023-02-24T17:34:20;5.50;99.90
1766;DHT22;880;52.452;8.656;2023-02-24T17:36:49;5.50;99.90
1766;DHT22;880;52.452;8.656;2023-02-24T17:39:16;5.50;99.90
1766;DHT22;880;52.452;8.656;2023-02-24T17:41:43;5.50;99.90
1766;DHT22;880;52.452;8.656;2023-02-24T17:44:10;5.40;99.90
1766;DHT22;880;52.452;8.656;2023-02-24T17:46:37;5.30;99.90
1766;DHT22;880;52.452;8.656;2023-02-24T17:49:04;5.30;99.90
1766;DHT22;880;52.452;8.656;2023-02-24T17:51:31;5.30;99.90
1766;DHT22;880;52.452;8.656;2023-02-24T17:53:58;5.30;99.90
1766;DHT22;880;52.452;8.656;2023-02-24T17:56:25;5.20;99.90
1766;DHT22;880;52.452;8.656;2023-02-24T17:58:53;5.20;99.90
1766;DHT22;880;52.452;8.656;2023-02-24T18:01:25;5.20;99.90
1766;DHT22;880;52.452;8.656;2023-02-24T18:03:53;5.20;99.90
1766;DHT22;880;52.452;8.656;2023-02-24T18:06:23;5.20;99.90
1766;DHT22;880;52.452;8.656;2023-02-24T18:08:50;5.10;99.90
1766;DHT22;880;52.452;8.656;2023-02-24T18:11:18;5.10;99.90
1766;DHT22;880;52.452;8.656;2023-02-24T18:13:45;5.10;99.90
1766;DHT22;880;52.452;8.656;2023-02-24T18:16:16;5.10;99.90
1766;DHT22;880;52.452;8.656;2023-02-24T18:18:43;5.10;99.90
1766;DHT22;880;52.452;8.656;2023-02-24T18:21:10;5.00;99.90
1766;DHT22;880;52.452;8.656;2023-02-24T18:23:37;5.10;99.90
1766;DHT22;880;52.452;8.656;2023-02-24T18:26:07;5.10;99.90
1766;DHT22;880;52.452;8.656;2023-02-24T18:28:36;5.10;99.90
1766;DHT22;880;52.452;8.656;2023-02-24T18:33:38;5.10;99.90
1766;DHT22;880;52.452;8.656;2023-02-24T18:36:06;5.00;99.90
1766;DHT22;880;52.452;8.656;2023-02-24T18:38:34;5.00;99.90
1766;DHT22;880;52.452;8.656;2023-02-24T18:41:04;5.00;99.90
1766;DHT22;880;52.452;8.656;2023-02-24T18:43:33;5.00;99.90
1766;DHT22;880;52.452;8.656;2023-02-24T18:46:03;4.90;99.90
1766;DHT22;880;52.452;8.656;2023-02-24T18:48:31;4.90;99.90
1766;DHT22;880;52.452;8.656;2023-02-24T18:50:59;4.90;99.90
1766;DHT22;880;52.452;8.656;2023-02-24T18:53:29;4.90;99.90
1766;DHT22;880;52.452;8.656;2023-02-24T18:56:02;4.90;99.90
1766;DHT22;880;52.452;8.656;2023-02-24T18:58:31;4.90;99.90
1766;DHT22;880;52.452;8.656;2023-02-24T19:00:58;4.90;99.90
1766;DHT22;880;52.452;8.656;2023-02-24T19:03:26;5.00;99.90
1766;DHT22;880;52.452;8.656;2023-02-24T19:05:53;4.90;99.90
1766;DHT22;880;52.452;8.656;2023-02-24T19:08:19;5.00;99.90
1766;DHT22;880;52.452;8.656;2023-02-24T19:10:46;5.00;99.90
1766;DHT22;880;52.452;8.656;2023-02-24T19:13:13;4.90;99.90
1766;DHT22;880;52.452;8.656;2023-02-24T19:15:40;4.90;99.90
1766;DHT22;880;52.452;8.656;2023-02-24T19:18:10;4.90;99.90
1766;DHT22;880;52.452;8.656;2023-02-24T19:20:40;4.90;99.90
1766;DHT22;880;52.452;8.656;2023-02-24T19:23:10;4.90;99.90
1766;DHT22;880;52.452;8.656;2023-02-24T19:25:37;5.00;99.90
1766;DHT22;880;52.452;8.656;2023-02-24T19:28:05;5.00;99.90
1766;DHT22;880;52.452;8.656;2023-02-24T19:30:33;5.00;99.90
1766;DHT22;880;52.452;8.656;2023-02-24T19:33:00;4.90;99.90
1766;DHT22;880;52.452;8.656;2023-02-24T19:35:27;5.00;99.90
1766;DHT22;880;52.452;8.656;2023-02-24T19:37:55;4.90;99.90
1766;DHT22;880;52.452;8.656;2023-02-24T19:40:22;4.90;99.90
1766;DHT22;880;52.452;8.656;2023-02-24T19:42:49;4.90;99.90